This is the latest recevied weather packets stored in our database for station/object KC9DRE. If no packets are shown the sender has not sent any weather packets the latest 10 day(s).
| Time | Temp. | Humidity | Pressure | Rain* | Wind** | Luminosity | Snow |
|---|---|---|---|---|---|---|---|
| 1777561800 | 13.89° C | 50% | 1018.3 hPa | 0 mm | - | 696 W/m² | - |
| 1777561495 | 13.33° C | 49% | 1018 hPa | 0 mm | - | 683 W/m² | - |
| 1777561191 | 12.78° C | 52% | 1018 hPa | 0 mm | - | 669 W/m² | - |
| 1777560885 | 12.22° C | 53% | 1018.2 hPa | 0 mm | - | 655 W/m² | - |
| 1777560584 | 12.78° C | 53% | 1018.3 hPa | 0 mm | - | 639 W/m² | - |
| 1777560281 | 12.22° C | 57% | 1018.3 hPa | 0 mm | - | 626 W/m² | - |
| 1777559978 | 12.78° C | 53% | 1018.4 hPa | 0 mm | - | 610 W/m² | - |
| 1777559673 | 12.78° C | 52% | 1018.4 hPa | 0 mm | - | 592 W/m² | - |
| 1777559371 | 12.22° C | 54% | 1018.5 hPa | 0 mm | - | 582 W/m² | - |
| 1777559067 | 12.22° C | 55% | 1018.2 hPa | 0 mm | - | 564 W/m² | - |
| 1777558762 | 12.22° C | 59% | 1018.4 hPa | 0 mm | - | 547 W/m² | - |
| 1777558458 | 12.78° C | 56% | 1018.3 hPa | 0 mm | - | 531 W/m² | - |
| 1777558154 | 11.67° C | 64% | 1018 hPa | 0 mm | - | 513 W/m² | - |
| 1777557851 | 11.67° C | 60% | 1018.2 hPa | 0 mm | - | 501 W/m² | - |
| 1777557548 | 11.67° C | 61% | 1018.3 hPa | 0 mm | - | 484 W/m² | - |
| 1777557244 | 11.11° C | 67% | 1017.9 hPa | 0 mm | - | 467 W/m² | - |
| 1777556940 | 11.11° C | 63% | 1018 hPa | 0 mm | - | 453 W/m² | - |
| 1777556635 | 11.11° C | 64% | 1018.1 hPa | 0 mm | - | 439 W/m² | - |
| 1777556330 | 11.67° C | 66% | 1018 hPa | 0 mm | - | 419 W/m² | - |
| 1777556027 | 11.67° C | 69% | 1018 hPa | 0 mm | - | 404 W/m² | - |
| 1777555721 | 11.11° C | 69% | 1017.9 hPa | 0 mm | - | 395 W/m² | - |
| 1777555418 | 11.11° C | 71% | 1017.9 hPa | 0 mm | - | 370 W/m² | - |
| 1777555115 | 10.56° C | 73% | 1017.9 hPa | 0 mm | - | 351 W/m² | - |
| 1777554812 | 10.56° C | 71% | 1017.9 hPa | 0 mm | - | 335 W/m² | - |
| 1777554509 | 10.56° C | 74% | 1017.7 hPa | 0 mm | - | 313 W/m² | - |
* Rain latest hour (hover to see other rain measurements)
** Current wind speed in m/s (hover to see current wind gust speed)